createdAt,value
2017-06-27T00:00:55.458Z,99.99
2017-06-27T00:10:55.408Z,99.99
2017-06-27T00:20:55.475Z,99.99
2017-06-27T00:30:55.437Z,99.99
2017-06-27T00:40:55.520Z,99.99
2017-06-27T00:50:55.470Z,99.99
2017-06-27T01:00:55.419Z,99.99
2017-06-27T01:10:55.497Z,99.99
2017-06-27T01:20:55.444Z,99.99
2017-06-27T01:30:55.403Z,99.99
2017-06-27T01:40:55.482Z,99.99
2017-06-27T01:50:55.434Z,99.99
2017-06-27T02:00:55.394Z,99.99
2017-06-27T02:10:55.463Z,99.99
2017-06-27T02:20:55.424Z,99.99
2017-06-27T02:30:55.497Z,99.99
2017-06-27T02:40:55.561Z,99.99
2017-06-27T02:50:55.408Z,99.99
2017-06-27T03:00:55.468Z,99.99
2017-06-27T03:10:55.437Z,99.99
2017-06-27T03:20:55.486Z,99.99
2017-06-27T03:30:55.449Z,99.99
2017-06-27T03:40:55.418Z,99.99
2017-06-27T03:50:55.479Z,99.99
2017-06-27T04:00:55.520Z,99.99
2017-06-27T04:10:55.398Z,99.99
2017-06-27T04:20:55.462Z,99.99
2017-06-27T04:30:55.422Z,99.99
2017-06-27T04:40:55.392Z,99.99
2017-06-27T04:50:55.452Z,99.99
2017-06-27T05:00:55.404Z,99.99
2017-06-27T05:10:55.479Z,99.99
2017-06-27T05:20:55.444Z,99.99
2017-06-27T05:30:55.395Z,99.99
2017-06-27T05:40:55.468Z,99.99
2017-06-27T05:50:55.459Z,96.13
2017-06-27T06:00:55.507Z,86.11
2017-06-27T06:10:55.462Z,85.19
2017-06-27T06:20:55.409Z,85.96
2017-06-27T06:30:55.466Z,77.36
2017-06-27T06:40:55.427Z,75.56
2017-06-27T06:50:55.392Z,71.08
2017-06-27T07:00:55.723Z,70.95
2017-06-27T07:10:55.633Z,69.6
2017-06-27T07:20:55.483Z,72.84
2017-06-27T07:30:55.446Z,72.03
2017-06-27T07:40:55.395Z,71.26
2017-06-27T07:50:55.463Z,72.26
2017-06-27T08:00:55.453Z,71.4
2017-06-27T08:10:55.485Z,73.71
2017-06-27T08:20:55.469Z,71.75
2017-06-27T08:30:55.417Z,68.1
2017-06-27T08:40:55.492Z,67.65
2017-06-27T08:50:55.452Z,70.64
2017-06-27T09:00:55.511Z,67.07
2017-06-27T09:10:55.457Z,65.91
2017-06-27T09:20:55.420Z,68.33
2017-06-27T09:30:55.511Z,65.53
2017-06-27T09:40:55.446Z,67.46
2017-06-27T09:50:55.546Z,66.56
2017-06-27T10:00:55.479Z,68.23
2017-06-27T10:10:55.409Z,67.07
2017-06-27T10:20:55.420Z,69.13
2017-06-27T10:30:55.420Z,67.85
2017-06-27T10:40:55.422Z,65.56
2017-06-27T10:50:55.433Z,66.17
2017-06-27T11:00:56.487Z,67.33
2017-06-27T11:10:55.455Z,68.46
2017-06-27T11:20:55.442Z,68.36
2017-06-27T11:30:55.468Z,65.95
2017-06-27T11:50:55.449Z,63.76
2017-06-27T12:00:55.460Z,64.24
2017-06-27T12:10:55.458Z,65.88
2017-06-27T12:20:55.436Z,67.27
2017-06-27T12:30:55.524Z,66.56
2017-06-27T12:40:55.462Z,71.17
2017-06-27T12:50:55.497Z,69.4
2017-06-27T13:00:55.474Z,69.98
2017-06-27T13:10:55.459Z,70.26
2017-06-27T13:20:55.474Z,74.94
2017-06-27T13:30:55.468Z,73.32
2017-06-27T13:40:55.471Z,79.99
2017-06-27T13:50:55.455Z,82.13
2017-06-27T14:00:55.476Z,83.19
2017-06-27T14:10:55.551Z,81.26
2017-06-27T14:20:55.537Z,79.49
2017-06-27T14:30:55.617Z,80.78
2017-06-27T14:40:55.522Z,82.71
2017-06-27T14:50:55.608Z,83.39
2017-06-27T15:00:55.506Z,85.02
2017-06-27T15:10:55.602Z,84.83
2017-06-27T15:20:55.635Z,86.38
2017-06-27T15:30:55.596Z,85.37
2017-06-27T15:40:55.577Z,87.49
2017-06-27T15:50:55.571Z,90.53
2017-06-27T16:00:56.622Z,91.93
2017-06-27T16:10:55.539Z,97.81
2017-06-27T16:20:55.535Z,99.99
2017-06-27T16:30:55.551Z,99.99
2017-06-27T16:40:55.669Z,99.99
2017-06-27T16:50:55.497Z,99.99
2017-06-27T17:00:55.612Z,99.99
2017-06-27T17:10:55.498Z,99.99
2017-06-27T17:20:55.592Z,99.99
2017-06-27T17:30:55.523Z,99.99
2017-06-27T17:40:55.638Z,99.99
2017-06-27T17:51:01.922Z,99.99
2017-06-27T18:00:56.275Z,99.99
2017-06-27T18:10:56.820Z,99.99
2017-06-27T18:20:55.518Z,99.99
2017-06-27T18:30:55.610Z,99.99
2017-06-27T18:40:55.566Z,99.99
2017-06-27T18:50:55.635Z,99.99
2017-06-27T19:00:55.633Z,99.99
2017-06-27T19:10:55.577Z,99.99
2017-06-27T19:20:55.946Z,99.99
2017-06-27T19:30:55.724Z,99.99
2017-06-27T19:40:55.667Z,99.99
2017-06-27T19:50:55.606Z,99.99
2017-06-27T20:00:55.608Z,99.99
2017-06-27T20:10:55.635Z,99.99
2017-06-27T20:20:55.595Z,99.99
2017-06-27T20:30:55.635Z,99.99
2017-06-27T20:40:55.617Z,99.99
2017-06-27T21:00:55.652Z,99.99
2017-06-27T21:10:56.638Z,99.99
2017-06-27T21:20:55.531Z,99.99
2017-06-27T21:30:56.306Z,99.99
2017-06-27T21:40:55.566Z,99.99
2017-06-27T21:50:55.613Z,99.99
2017-06-27T22:00:55.585Z,99.99
2017-06-27T22:10:55.826Z,99.99
2017-06-27T22:20:55.622Z,99.99
2017-06-27T22:30:55.564Z,99.99
2017-06-27T22:40:55.639Z,99.99
2017-06-27T22:50:55.628Z,99.99
2017-06-27T23:00:55.652Z,99.99
2017-06-27T23:10:55.631Z,99.99
2017-06-27T23:20:55.580Z,99.99
2017-06-27T23:30:55.547Z,99.99
2017-06-27T23:40:55.599Z,99.99
2017-06-27T23:50:55.547Z,99.99
